createdAt,value
2019-04-29T00:00:45.038Z,9.30
2019-04-29T00:03:16.507Z,9.30
2019-04-29T00:05:47.874Z,9.30
2019-04-29T00:08:19.038Z,9.20
2019-04-29T00:10:50.502Z,9.30
2019-04-29T00:13:21.854Z,9.20
2019-04-29T00:16:14.943Z,9.20
2019-04-29T00:19:02.372Z,9.20
2019-04-29T00:21:34.298Z,9.20
2019-04-29T00:24:05.546Z,9.20
2019-04-29T00:26:36.655Z,9.20
2019-04-29T00:29:07.827Z,9.20
2019-04-29T00:31:38.714Z,9.20
2019-04-29T00:34:09.674Z,9.20
2019-04-29T00:36:53.543Z,9.20
2019-04-29T00:39:43.731Z,9.20
2019-04-29T00:42:25.367Z,9.20
2019-04-29T00:44:56.492Z,9.10
2019-04-29T00:47:27.777Z,9.10
2019-04-29T00:49:58.870Z,9.10
2019-04-29T00:52:29.802Z,9.10
2019-04-29T00:55:07.034Z,9.10
2019-04-29T00:57:37.930Z,9.10
2019-04-29T01:00:09.762Z,9.10
2019-04-29T01:02:41.530Z,9.10
2019-04-29T01:05:12.767Z,9.10
2019-04-29T01:07:43.930Z,9.10
2019-04-29T01:10:15.266Z,9.10
2019-04-29T01:12:46.518Z,9.10
2019-04-29T01:15:17.623Z,9.10
2019-04-29T01:17:48.959Z,9.10
2019-04-29T01:20:19.994Z,9.10
2019-04-29T01:22:51.278Z,9.10
2019-04-29T01:25:23.474Z,9.10
2019-04-29T01:28:00.503Z,9.10
2019-04-29T01:31:26.516Z,9.10
2019-04-29T01:34:02.698Z,9.20
2019-04-29T01:36:38.674Z,9.20
2019-04-29T01:39:12.031Z,9.20
2019-04-29T01:42:01.910Z,9.20
2019-04-29T01:44:35.238Z,9.20
2019-04-29T01:47:07.578Z,9.10
2019-04-29T01:49:38.522Z,9.10
2019-04-29T01:52:09.359Z,9.10
2019-04-29T01:54:40.442Z,9.10
2019-04-29T01:57:11.802Z,9.10
2019-04-29T01:59:42.814Z,9.10
2019-04-29T02:02:13.826Z,9.10
2019-04-29T02:04:44.902Z,9.10
2019-04-29T02:07:15.899Z,9.10
2019-04-29T02:10:11.166Z,9.10
2019-04-29T02:12:42.126Z,9.10
2019-04-29T02:15:13.178Z,9.10
2019-04-29T02:17:44.591Z,9.10
2019-04-29T02:20:15.757Z,9.10
2019-04-29T02:22:52.002Z,9.10
2019-04-29T02:25:33.750Z,9.10
2019-04-29T02:28:05.141Z,9.10
2019-04-29T02:30:45.177Z,9.20
2019-04-29T02:33:16.214Z,9.20
2019-04-29T02:35:47.322Z,9.20
2019-04-29T02:38:46.243Z,9.20
2019-04-29T02:41:28.191Z,9.20
2019-04-29T02:44:00.919Z,9.20
2019-04-29T02:46:31.886Z,9.20
2019-04-29T02:49:03.580Z,9.20
2019-04-29T02:51:50.838Z,9.20
2019-04-29T02:54:22.996Z,9.20
2019-04-29T02:57:00.929Z,9.20
2019-04-29T02:59:36.290Z,9.20
2019-04-29T03:02:15.103Z,9.20
2019-04-29T03:05:04.082Z,9.20
2019-04-29T03:07:35.587Z,9.20
2019-04-29T03:10:06.966Z,9.20
2019-04-29T03:12:38.146Z,9.20
2019-04-29T03:15:09.496Z,9.20
2019-04-29T03:17:40.457Z,9.20
2019-04-29T03:20:20.284Z,9.20
2019-04-29T03:22:51.199Z,9.20
2019-04-29T03:25:22.360Z,9.20
2019-04-29T03:27:53.627Z,9.20
2019-04-29T03:30:24.713Z,9.20
2019-04-29T03:32:55.653Z,9.20
2019-04-29T03:35:26.832Z,9.20
2019-04-29T03:37:58.153Z,9.20
2019-04-29T03:40:29.548Z,9.20
2019-04-29T03:43:00.590Z,9.20
2019-04-29T03:45:31.587Z,9.20
2019-04-29T03:48:03.017Z,9.20
2019-04-29T03:50:33.899Z,9.20
2019-04-29T03:53:05.302Z,9.30
2019-04-29T03:55:39.869Z,9.30
2019-04-29T03:58:08.927Z,9.30
2019-04-29T04:00:44.150Z,9.30
2019-04-29T04:03:35.403Z,9.20
2019-04-29T04:06:28.234Z,9.20
2019-04-29T04:09:06.757Z,9.20
2019-04-29T04:11:38.044Z,9.30
2019-04-29T04:14:09.233Z,9.20
2019-04-29T04:17:15.023Z,9.20
2019-04-29T04:19:47.123Z,9.20
2019-04-29T04:22:18.542Z,9.20
2019-04-29T04:24:52.195Z,9.20
2019-04-29T04:27:23.216Z,9.20
2019-04-29T04:29:54.099Z,9.30
2019-04-29T04:32:24.799Z,9.20
2019-04-29T04:34:55.894Z,9.30
2019-04-29T04:37:26.763Z,9.30
2019-04-29T04:39:57.800Z,9.30
2019-04-29T04:42:30.095Z,9.40
2019-04-29T04:45:01.625Z,9.40
2019-04-29T04:47:33.342Z,9.40
2019-04-29T04:50:06.282Z,9.50
2019-04-29T04:52:37.439Z,9.50
2019-04-29T04:55:09.607Z,9.50
2019-04-29T04:57:40.616Z,9.50
2019-04-29T05:00:20.172Z,9.60
2019-04-29T05:02:50.364Z,9.60
2019-04-29T05:05:21.398Z,9.70
2019-04-29T05:07:52.370Z,9.70
2019-04-29T05:10:23.570Z,9.80
2019-04-29T05:12:54.670Z,9.90
2019-04-29T05:15:25.691Z,9.90
2019-04-29T05:17:57.283Z,10.00
2019-04-29T05:20:29.858Z,10.10
2019-04-29T05:23:01.954Z,10.20
2019-04-29T05:25:33.996Z,10.30
2019-04-29T05:28:04.971Z,10.40
2019-04-29T05:30:35.711Z,10.60
2019-04-29T05:33:06.446Z,10.70
2019-04-29T05:36:01.858Z,10.90
2019-04-29T05:38:59.557Z,11.10
2019-04-29T05:41:34.708Z,11.40
2019-04-29T05:44:12.147Z,11.60
2019-04-29T05:46:55.578Z,11.80
2019-04-29T05:49:31.546Z,12.10
2019-04-29T05:52:30.060Z,12.20
2019-04-29T05:55:01.545Z,12.30
2019-04-29T05:57:32.934Z,12.40
2019-04-29T06:00:04.671Z,12.50
2019-04-29T06:02:38.683Z,12.60
2019-04-29T06:05:08.715Z,12.60
2019-04-29T06:07:39.767Z,12.80
2019-04-29T06:10:11.006Z,12.90
2019-04-29T06:12:44.489Z,13.10
2019-04-29T06:15:14.998Z,13.60
2019-04-29T06:17:46.328Z,14.30
2019-04-29T06:20:22.320Z,14.80
2019-04-29T06:22:50.077Z,15.20
2019-04-29T06:25:20.958Z,15.50
2019-04-29T06:27:51.971Z,15.70
2019-04-29T06:30:22.854Z,15.80
2019-04-29T06:32:53.799Z,15.80
2019-04-29T06:35:24.955Z,15.70
2019-04-29T06:37:56.142Z,15.70
2019-04-29T06:40:30.484Z,15.50
2019-04-29T06:43:00.162Z,15.30
2019-04-29T06:45:31.254Z,15.10
2019-04-29T06:48:02.218Z,15.00
2019-04-29T06:50:34.149Z,14.80
2019-04-29T06:53:06.446Z,14.80
2019-04-29T06:55:37.470Z,14.70
2019-04-29T06:58:08.146Z,14.80
2019-04-29T07:00:39.204Z,14.70
2019-04-29T07:03:10.330Z,14.70
2019-04-29T07:05:41.310Z,14.80
2019-04-29T07:08:12.214Z,14.80
2019-04-29T07:10:43.250Z,14.80
2019-04-29T07:13:17.917Z,15.00
2019-04-29T07:15:47.719Z,15.00
2019-04-29T07:18:19.914Z,15.10
2019-04-29T07:20:50.939Z,15.30
2019-04-29T07:23:22.274Z,15.40
2019-04-29T07:25:53.278Z,15.70
2019-04-29T07:28:24.390Z,16.20
2019-04-29T07:31:03.102Z,16.40
2019-04-29T07:33:29.354Z,16.70
2019-04-29T07:36:10.840Z,16.90
2019-04-29T07:38:41.112Z,17.20
2019-04-29T07:41:06.067Z,17.40
2019-04-29T07:43:43.136Z,17.70
2019-04-29T07:46:19.950Z,17.80
2019-04-29T07:49:01.512Z,17.90
2019-04-29T07:51:23.847Z,18.10
2019-04-29T07:53:54.599Z,18.20
2019-04-29T07:56:26.106Z,18.20
2019-04-29T07:58:58.951Z,18.30
2019-04-29T08:01:30.279Z,18.30
2019-04-29T08:04:02.123Z,18.40
2019-04-29T08:06:33.618Z,18.70
2019-04-29T08:09:09.498Z,19.00
2019-04-29T08:11:39.483Z,19.10
2019-04-29T08:14:12.102Z,19.10
2019-04-29T08:16:43.086Z,19.30
2019-04-29T08:19:14.402Z,19.50
2019-04-29T08:21:49.278Z,19.70
2019-04-29T08:24:18.215Z,19.80
2019-04-29T08:26:50.911Z,20.00
2019-04-29T08:29:22.273Z,20.30
2019-04-29T08:31:56.728Z,20.30
2019-04-29T08:34:25.967Z,20.40
2019-04-29T08:36:57.239Z,20.30
2019-04-29T08:39:29.436Z,20.40
2019-04-29T08:42:03.657Z,20.50
2019-04-29T08:44:54.736Z,20.60
2019-04-29T08:47:31.491Z,20.70
2019-04-29T08:50:01.076Z,20.70
2019-04-29T08:52:32.198Z,20.70
2019-04-29T08:55:03.138Z,20.80
2019-04-29T08:57:36.501Z,20.80
2019-04-29T09:00:08.600Z,20.80
2019-04-29T09:02:41.496Z,20.80
2019-04-29T09:05:13.266Z,20.70
2019-04-29T09:07:44.842Z,20.60
2019-04-29T09:10:16.546Z,20.70
2019-04-29T09:12:48.538Z,20.70
2019-04-29T09:15:19.542Z,20.70
2019-04-29T09:17:50.471Z,20.80
2019-04-29T09:20:21.447Z,20.90
2019-04-29T09:22:57.019Z,20.90
2019-04-29T09:25:45.863Z,20.90
2019-04-29T09:28:22.469Z,20.90
2019-04-29T09:30:49.370Z,21.00
2019-04-29T09:33:20.522Z,21.20
2019-04-29T09:35:51.710Z,21.40
2019-04-29T09:38:22.966Z,21.70
2019-04-29T09:41:12.686Z,21.80
2019-04-29T09:43:59.280Z,21.80
2019-04-29T09:46:34.552Z,21.90
2019-04-29T09:49:03.826Z,21.90
2019-04-29T09:51:35.103Z,21.80
2019-04-29T09:54:09.685Z,21.80
2019-04-29T09:56:38.807Z,21.70
2019-04-29T09:59:24.398Z,21.60
2019-04-29T10:02:26.201Z,21.50
2019-04-29T10:05:04.062Z,21.30
2019-04-29T10:07:35.090Z,21.20
2019-04-29T10:10:07.744Z,20.90
2019-04-29T10:12:39.327Z,20.80
2019-04-29T10:15:12.229Z,20.60
2019-04-29T10:17:56.026Z,20.50
2019-04-29T10:20:31.887Z,20.20
2019-04-29T10:23:02.626Z,20.10
2019-04-29T10:25:33.434Z,20.00
2019-04-29T10:28:04.823Z,19.90
2019-04-29T10:30:35.958Z,19.90
2019-04-29T10:33:07.212Z,20.00
2019-04-29T10:35:40.694Z,20.10
2019-04-29T10:38:11.647Z,20.30
2019-04-29T10:41:00.664Z,20.40
2019-04-29T10:43:56.290Z,20.50
2019-04-29T10:46:50.459Z,20.60
2019-04-29T10:49:26.826Z,20.70
2019-04-29T10:52:02.505Z,20.80
2019-04-29T10:54:31.237Z,21.00
2019-04-29T10:57:03.059Z,21.00
2019-04-29T10:59:36.646Z,21.00
2019-04-29T11:02:31.095Z,20.90
2019-04-29T11:05:44.670Z,20.70
2019-04-29T11:08:33.696Z,20.40
2019-04-29T11:11:04.395Z,20.10
2019-04-29T11:13:35.588Z,19.80
2019-04-29T11:16:07.167Z,19.60
2019-04-29T11:18:38.375Z,19.30
2019-04-29T11:21:12.006Z,19.10
2019-04-29T11:24:11.591Z,18.90
2019-04-29T11:26:48.195Z,18.70
2019-04-29T11:29:22.239Z,18.60
2019-04-29T11:31:55.647Z,18.40
2019-04-29T11:34:48.403Z,18.30
2019-04-29T11:37:20.070Z,18.20
2019-04-29T11:39:51.753Z,18.10
2019-04-29T11:42:23.162Z,18.00
2019-04-29T11:44:57.197Z,18.00
2019-04-29T11:47:26.947Z,17.90
2019-04-29T11:50:07.451Z,17.80
2019-04-29T11:52:39.562Z,17.70
2019-04-29T11:55:14.046Z,17.60
2019-04-29T11:57:51.969Z,17.50
2019-04-29T12:00:53.932Z,17.40
2019-04-29T12:03:28.881Z,17.20
2019-04-29T12:06:02.974Z,17.10
2019-04-29T12:08:33.738Z,17.00
2019-04-29T12:11:07.057Z,17.00
2019-04-29T12:13:47.634Z,16.90
2019-04-29T12:16:24.737Z,16.80
2019-04-29T12:19:02.162Z,16.70
2019-04-29T12:21:34.014Z,16.60
2019-04-29T12:24:06.902Z,16.50
2019-04-29T12:26:42.974Z,16.40
2019-04-29T12:29:13.688Z,16.30
2019-04-29T12:32:05.852Z,16.20
2019-04-29T12:35:11.509Z,16.00
2019-04-29T12:38:13.143Z,15.90
2019-04-29T12:41:03.874Z,15.80
2019-04-29T12:43:59.685Z,15.70
2019-04-29T12:46:45.479Z,15.60
2019-04-29T12:49:16.713Z,15.60
2019-04-29T12:51:47.607Z,15.60
2019-04-29T12:54:18.410Z,15.60
2019-04-29T12:56:49.504Z,15.50
2019-04-29T12:59:21.039Z,15.50
2019-04-29T13:02:04.817Z,15.60
2019-04-29T13:04:49.790Z,15.60
2019-04-29T13:07:23.670Z,15.60
2019-04-29T13:09:57.391Z,15.60
2019-04-29T13:12:30.385Z,15.70
2019-04-29T13:15:18.443Z,15.70
2019-04-29T13:18:03.308Z,15.70
2019-04-29T13:20:29.338Z,15.70
2019-04-29T13:23:17.081Z,15.80
2019-04-29T13:25:33.183Z,15.80
2019-04-29T13:28:05.569Z,15.80
2019-04-29T13:30:36.600Z,15.90
2019-04-29T13:33:16.423Z,15.90
2019-04-29T13:35:47.974Z,15.90
2019-04-29T13:38:13.439Z,16.00
2019-04-29T13:40:44.995Z,16.10
2019-04-29T13:43:16.474Z,16.20
2019-04-29T13:46:05.225Z,16.50
2019-04-29T13:49:06.420Z,16.90
2019-04-29T13:51:35.873Z,17.30
2019-04-29T13:54:06.266Z,17.70
2019-04-29T13:56:54.652Z,17.90
2019-04-29T13:59:12.539Z,18.10
2019-04-29T14:02:04.714Z,18.30
2019-04-29T14:04:42.042Z,18.60
2019-04-29T14:07:14.003Z,18.90
2019-04-29T14:09:47.816Z,19.30
2019-04-29T14:12:47.140Z,19.50
2019-04-29T14:14:53.965Z,19.50
2019-04-29T14:17:26.938Z,19.50
2019-04-29T14:19:58.414Z,19.50
2019-04-29T14:22:31.463Z,19.20
2019-04-29T14:25:03.607Z,19.00
2019-04-29T14:27:34.726Z,18.70
2019-04-29T14:30:09.401Z,18.50
2019-04-29T14:32:42.337Z,18.20
2019-04-29T14:35:20.038Z,18.00
2019-04-29T14:37:55.327Z,17.80
2019-04-29T14:40:24.042Z,17.60
2019-04-29T14:43:26.274Z,17.40
2019-04-29T14:46:18.079Z,17.20
2019-04-29T14:49:10.410Z,17.10
2019-04-29T14:51:41.473Z,17.00
2019-04-29T14:54:13.108Z,16.90
2019-04-29T14:56:44.278Z,16.80
2019-04-29T14:59:15.200Z,16.70
2019-04-29T15:01:51.827Z,16.70
2019-04-29T15:04:25.328Z,16.70
2019-04-29T15:06:56.723Z,16.80
2019-04-29T15:09:28.282Z,16.80
2019-04-29T15:12:17.191Z,16.80
2019-04-29T15:15:03.019Z,16.80
2019-04-29T15:17:48.708Z,16.60
2019-04-29T15:20:35.541Z,16.50
2019-04-29T15:23:06.767Z,16.40
2019-04-29T15:25:37.876Z,16.30
2019-04-29T15:28:08.982Z,16.30
2019-04-29T15:30:40.103Z,16.20
2019-04-29T15:33:10.906Z,16.10
2019-04-29T15:35:42.063Z,16.10
2019-04-29T15:38:13.286Z,16.00
2019-04-29T15:40:45.835Z,16.00
2019-04-29T15:43:22.006Z,15.90
2019-04-29T15:45:50.103Z,15.90
2019-04-29T15:48:23.814Z,15.80
2019-04-29T15:50:54.982Z,15.70
2019-04-29T15:53:26.434Z,15.70
2019-04-29T15:56:06.503Z,15.60
2019-04-29T15:58:30.298Z,15.50
2019-04-29T16:01:12.894Z,15.50
2019-04-29T16:03:37.428Z,15.40
2019-04-29T16:06:21.171Z,15.40
2019-04-29T16:08:59.066Z,15.40
2019-04-29T16:12:14.133Z,15.30
2019-04-29T16:14:39.507Z,15.30
2019-04-29T16:17:11.010Z,15.20
2019-04-29T16:19:42.283Z,15.20
2019-04-29T16:22:19.824Z,15.10
2019-04-29T16:24:46.558Z,15.10
2019-04-29T16:27:17.854Z,15.00
2019-04-29T16:29:51.906Z,14.90
2019-04-29T16:32:29.455Z,14.80
2019-04-29T16:35:00.330Z,14.70
2019-04-29T16:37:31.777Z,14.60
2019-04-29T16:40:04.407Z,14.50
2019-04-29T16:42:58.103Z,14.50
2019-04-29T16:45:52.933Z,14.40
2019-04-29T16:48:24.671Z,14.30
2019-04-29T16:50:56.094Z,14.20
2019-04-29T16:53:27.283Z,14.10
2019-04-29T16:55:58.938Z,14.10
2019-04-29T16:58:30.350Z,14.00
2019-04-29T17:01:01.911Z,13.90
2019-04-29T17:03:34.110Z,13.80
2019-04-29T17:06:05.638Z,13.70
2019-04-29T17:08:50.711Z,13.60
2019-04-29T17:11:25.147Z,13.50
2019-04-29T17:13:56.850Z,13.50
2019-04-29T17:16:29.571Z,13.40
2019-04-29T17:19:01.155Z,13.40
2019-04-29T17:21:32.590Z,13.30
2019-04-29T17:24:05.099Z,13.20
2019-04-29T17:27:07.035Z,13.20
2019-04-29T17:30:04.050Z,13.10
2019-04-29T17:32:58.606Z,13.10
2019-04-29T17:35:33.993Z,13.00
2019-04-29T17:38:05.030Z,13.00
2019-04-29T17:40:36.764Z,12.90
2019-04-29T17:43:38.310Z,12.90
2019-04-29T17:46:31.436Z,12.90
2019-04-29T17:49:22.147Z,12.80
2019-04-29T17:52:01.486Z,12.80
2019-04-29T17:54:32.094Z,12.80
2019-04-29T17:57:28.548Z,12.70
2019-04-29T18:00:23.307Z,12.70
2019-04-29T18:03:13.006Z,12.70
2019-04-29T18:06:11.774Z,12.70
2019-04-29T18:09:17.071Z,12.60
2019-04-29T18:11:51.654Z,12.60
2019-04-29T18:14:21.755Z,12.50
2019-04-29T18:16:53.054Z,12.50
2019-04-29T18:19:34.834Z,12.50
2019-04-29T18:22:44.726Z,12.50
2019-04-29T18:25:32.247Z,12.40
2019-04-29T18:28:05.156Z,12.40
2019-04-29T18:30:38.413Z,12.40
2019-04-29T18:33:09.115Z,12.40
2019-04-29T18:35:42.422Z,12.30
2019-04-29T18:38:13.482Z,12.30
2019-04-29T18:40:46.781Z,12.30
2019-04-29T18:43:19.245Z,12.30
2019-04-29T18:45:56.260Z,12.20
2019-04-29T18:48:26.872Z,12.20
2019-04-29T18:50:57.774Z,12.20
2019-04-29T18:53:28.751Z,12.20
2019-04-29T18:56:00.204Z,12.20
2019-04-29T18:58:31.602Z,12.20
2019-04-29T19:01:02.466Z,12.10
2019-04-29T19:03:45.723Z,12.10
2019-04-29T19:06:17.698Z,12.10
2019-04-29T19:08:48.562Z,12.10
2019-04-29T19:11:30.030Z,12.00
2019-04-29T19:13:52.452Z,12.10
2019-04-29T19:16:27.383Z,12.00
2019-04-29T19:19:01.599Z,12.00
2019-04-29T19:21:31.620Z,12.00
2019-04-29T19:24:04.737Z,11.90
2019-04-29T19:26:36.111Z,11.90
2019-04-29T19:29:09.472Z,11.90
2019-04-29T19:31:46.636Z,11.90
2019-04-29T19:34:14.636Z,11.80
2019-04-29T19:36:46.166Z,11.80
2019-04-29T19:39:21.718Z,11.80
2019-04-29T19:41:51.729Z,11.70
2019-04-29T19:44:26.486Z,11.70
2019-04-29T19:46:58.967Z,11.70
2019-04-29T19:49:29.476Z,11.60
2019-04-29T19:52:00.903Z,11.60
2019-04-29T19:54:32.290Z,11.60
2019-04-29T19:57:07.229Z,11.60
2019-04-29T19:59:36.997Z,11.60
2019-04-29T20:02:10.588Z,11.60
2019-04-29T20:04:50.943Z,11.50
2019-04-29T20:07:20.672Z,11.50
2019-04-29T20:10:01.146Z,11.50
2019-04-29T20:12:26.405Z,11.50
2019-04-29T20:14:59.517Z,11.50
2019-04-29T20:18:02.478Z,11.50
2019-04-29T20:20:41.278Z,11.40
2019-04-29T20:23:12.588Z,11.40
2019-04-29T20:25:46.004Z,11.40
2019-04-29T20:28:20.189Z,11.40
2019-04-29T20:30:50.516Z,11.40
2019-04-29T20:33:22.931Z,11.40
2019-04-29T20:35:56.262Z,11.40
2019-04-29T20:38:29.893Z,11.30
2019-04-29T20:41:00.713Z,11.30
2019-04-29T20:43:33.358Z,11.30
2019-04-29T20:46:04.655Z,11.30
2019-04-29T20:48:37.079Z,11.30
2019-04-29T20:51:13.108Z,11.30
2019-04-29T20:53:46.437Z,11.30
2019-04-29T20:56:25.257Z,11.20
2019-04-29T20:58:50.945Z,11.20
2019-04-29T21:01:28.328Z,11.20
2019-04-29T21:03:59.666Z,11.20
2019-04-29T21:06:32.615Z,11.20
2019-04-29T21:09:06.221Z,11.20
2019-04-29T21:12:00.259Z,11.10
2019-04-29T21:14:40.045Z,11.10
2019-04-29T21:17:11.367Z,11.10
2019-04-29T21:19:43.171Z,11.10
2019-04-29T21:22:22.274Z,11.10
2019-04-29T21:24:49.468Z,11.10
2019-04-29T21:27:22.634Z,11.10
2019-04-29T21:29:54.222Z,11.00
2019-04-29T21:32:26.298Z,11.10
2019-04-29T21:35:19.214Z,11.00
2019-04-29T21:38:07.594Z,11.00
2019-04-29T21:40:43.706Z,11.00
2019-04-29T21:43:18.752Z,11.00
2019-04-29T21:45:49.918Z,11.00
2019-04-29T21:48:25.342Z,11.00
2019-04-29T21:50:54.242Z,11.00
2019-04-29T21:53:25.659Z,11.00
2019-04-29T21:55:59.594Z,11.00
2019-04-29T21:58:33.002Z,11.00
2019-04-29T22:01:02.560Z,11.00
2019-04-29T22:03:34.810Z,11.00
2019-04-29T22:06:06.438Z,11.00
2019-04-29T22:08:37.158Z,11.00
2019-04-29T22:11:08.338Z,11.00
2019-04-29T22:13:39.330Z,11.00
2019-04-29T22:16:11.548Z,10.90
2019-04-29T22:18:44.580Z,10.90
2019-04-29T22:21:21.960Z,10.90
2019-04-29T22:23:50.950Z,10.90
2019-04-29T22:26:23.350Z,10.90
2019-04-29T22:29:01.793Z,11.00
2019-04-29T22:31:33.508Z,10.90
2019-04-29T22:33:59.870Z,10.90
2019-04-29T22:36:31.165Z,11.00
2019-04-29T22:39:02.041Z,11.00
2019-04-29T22:42:05.386Z,11.00
2019-04-29T22:44:36.396Z,11.00
2019-04-29T22:47:07.707Z,11.00
2019-04-29T22:49:38.492Z,11.00
2019-04-29T22:52:09.407Z,11.00
2019-04-29T22:54:40.098Z,11.00
2019-04-29T22:57:11.122Z,10.90
2019-04-29T22:59:42.054Z,11.00
2019-04-29T23:02:13.241Z,10.90
2019-04-29T23:04:47.213Z,11.00
2019-04-29T23:07:17.617Z,10.90
2019-04-29T23:09:50.330Z,10.90
2019-04-29T23:12:21.474Z,10.90
2019-04-29T23:14:52.750Z,10.90
2019-04-29T23:17:25.448Z,10.80
2019-04-29T23:20:01.463Z,10.80
2019-04-29T23:22:52.644Z,10.80
2019-04-29T23:25:30.966Z,10.80
2019-04-29T23:28:02.082Z,10.80
2019-04-29T23:30:33.246Z,10.80
2019-04-29T23:33:04.920Z,10.80
2019-04-29T23:35:39.759Z,10.80
2019-04-29T23:38:09.418Z,10.80
2019-04-29T23:40:40.994Z,10.70
2019-04-29T23:43:12.149Z,10.70
2019-04-29T23:45:44.981Z,10.70
2019-04-29T23:48:20.004Z,10.70
2019-04-29T23:50:49.721Z,10.70
2019-04-29T23:53:24.928Z,10.70
2019-04-29T23:55:55.407Z,10.70
2019-04-29T23:58:38.846Z,10.70
